createdAt,value
2022-09-05T00:01:57.948Z,2.47
2022-09-05T00:04:29.910Z,2.20
2022-09-05T00:07:01.715Z,2.53
2022-09-05T00:09:41.387Z,2.40
2022-09-05T00:12:11.861Z,2.30
2022-09-05T00:15:15.030Z,2.60
2022-09-05T00:18:59.422Z,2.23
2022-09-05T00:24:21.706Z,2.60
2022-09-05T00:24:31.894Z,2.60
2022-09-05T00:26:25.586Z,2.20
2022-09-05T00:29:02.493Z,2.60
2022-09-05T00:31:55.254Z,2.40
2022-09-05T00:34:47.134Z,2.20
2022-09-05T00:37:27.318Z,2.10
2022-09-05T00:40:17.684Z,2.60
2022-09-05T00:42:46.407Z,2.37
2022-09-05T00:45:19.645Z,2.50
2022-09-05T00:47:51.849Z,2.43
2022-09-05T00:50:23.383Z,2.60
2022-09-05T00:53:06.688Z,2.60
2022-09-05T00:55:38.912Z,2.53
2022-09-05T00:58:12.928Z,2.50
2022-09-05T01:00:46.969Z,2.40
2022-09-05T01:03:42.280Z,2.90
2022-09-05T01:06:19.589Z,2.43
2022-09-05T01:08:53.569Z,2.40
2022-09-05T01:11:29.611Z,2.27
2022-09-05T01:14:03.512Z,2.37
2022-09-05T01:16:42.990Z,2.20
2022-09-05T01:19:19.876Z,2.40
2022-09-05T01:22:10.347Z,2.47
2022-09-05T01:24:46.028Z,2.70
2022-09-05T01:27:48.153Z,2.30
2022-09-05T01:30:23.240Z,2.60
2022-09-05T01:33:05.880Z,2.23
2022-09-05T01:35:43.671Z,2.53
2022-09-05T01:38:33.456Z,2.57
2022-09-05T01:41:19.178Z,2.23
2022-09-05T01:44:02.555Z,2.20
2022-09-05T01:46:38.621Z,2.50
2022-09-05T01:49:13.296Z,2.10
2022-09-05T01:51:51.725Z,2.07
2022-09-05T01:54:26.433Z,2.17
2022-09-05T01:57:02.275Z,2.30
2022-09-05T01:59:35.616Z,2.17
2022-09-05T02:02:15.413Z,2.20
2022-09-05T02:04:52.568Z,2.13
2022-09-05T02:07:31.128Z,2.10
2022-09-05T02:10:13.204Z,2.17
2022-09-05T02:12:59.746Z,2.10
2022-09-05T02:15:37.931Z,1.90
2022-09-05T02:18:12.937Z,2.40
2022-09-05T02:20:46.821Z,2.27
2022-09-05T02:23:41.220Z,2.30
2022-09-05T02:26:14.549Z,2.10
2022-09-05T02:28:47.425Z,1.80
2022-09-05T02:31:19.474Z,2.30
2022-09-05T02:33:51.898Z,2.17
2022-09-05T02:36:32.832Z,1.77
2022-09-05T02:45:00.437Z,1.77
2022-09-05T02:45:08.136Z,2.03
2022-09-05T02:45:10.984Z,1.87
2022-09-05T02:47:41.167Z,2.50
2022-09-05T02:55:54.782Z,2.20
2022-09-05T02:57:29.556Z,1.87
2022-09-05T02:57:34.569Z,1.63
2022-09-05T02:59:12.217Z,2.03
2022-09-05T03:01:48.292Z,1.90
2022-09-05T03:04:23.920Z,2.00
2022-09-05T03:06:59.459Z,1.77
2022-09-05T03:09:36.827Z,1.90
2022-09-05T03:12:29.558Z,1.97
2022-09-05T03:15:22.249Z,1.90
2022-09-05T03:18:21.208Z,1.80
2022-09-05T03:21:23.037Z,1.90
2022-09-05T03:24:07.110Z,1.73
2022-09-05T03:26:45.628Z,1.83
2022-09-05T03:29:29.168Z,1.80
2022-09-05T03:32:14.990Z,1.80
2022-09-05T03:35:04.035Z,1.83
2022-09-05T03:37:51.784Z,2.07
2022-09-05T03:40:36.584Z,1.90
2022-09-05T03:43:16.450Z,1.73
2022-09-05T03:45:54.347Z,1.73
2022-09-05T03:48:56.044Z,1.60
2022-09-05T03:57:05.649Z,1.60
2022-09-05T03:57:16.933Z,1.90
2022-09-05T03:57:41.383Z,1.67
2022-09-05T04:00:12.574Z,1.90
2022-09-05T04:07:04.991Z,1.60
2022-09-05T04:08:19.034Z,2.00
2022-09-05T04:08:41.787Z,1.80
2022-09-05T04:11:15.480Z,1.70
2022-09-05T04:13:49.506Z,1.60
2022-09-05T04:16:19.795Z,1.67
2022-09-05T04:18:50.520Z,1.40
2022-09-05T04:21:22.388Z,1.73
2022-09-05T04:23:55.114Z,1.67
2022-09-05T04:26:30.154Z,1.70
2022-09-05T04:29:04.303Z,1.87
2022-09-05T04:31:38.239Z,2.00
2022-09-05T04:34:19.279Z,1.70
2022-09-05T04:36:49.416Z,1.77
2022-09-05T04:39:27.620Z,1.70
2022-09-05T04:41:59.097Z,1.83
2022-09-05T04:44:31.273Z,1.83
2022-09-05T04:47:01.169Z,1.73
2022-09-05T04:49:30.822Z,1.60
2022-09-05T04:52:22.880Z,2.20
2022-09-05T04:55:02.056Z,1.70
2022-09-05T04:57:33.437Z,2.20
2022-09-05T05:05:44.995Z,1.73
2022-09-05T05:06:17.109Z,2.00
2022-09-05T05:06:17.542Z,2.13
2022-09-05T05:08:44.621Z,1.80
2022-09-05T05:17:54.099Z,2.03
2022-09-05T05:18:07.790Z,1.90
2022-09-05T05:18:10.720Z,1.87
2022-09-05T05:19:48.930Z,1.87
2022-09-05T05:22:35.653Z,2.20
2022-09-05T05:25:04.196Z,2.10
2022-09-05T05:27:39.164Z,2.00
2022-09-05T05:30:09.208Z,2.03
2022-09-05T05:32:46.040Z,2.20
2022-09-05T05:35:15.812Z,2.03
2022-09-05T05:37:47.182Z,2.23
2022-09-05T05:40:20.529Z,2.20
2022-09-05T05:42:49.461Z,2.17
2022-09-05T05:45:19.192Z,1.90
2022-09-05T05:47:50.681Z,2.20
2022-09-05T05:50:23.756Z,2.30
2022-09-05T05:53:02.263Z,1.97
2022-09-05T05:55:53.037Z,2.20
2022-09-05T05:58:32.820Z,1.90
2022-09-05T06:01:28.873Z,1.60
2022-09-05T06:04:21.613Z,1.77
2022-09-05T06:07:03.412Z,1.53
2022-09-05T06:14:56.377Z,1.40
2022-09-05T06:14:59.696Z,1.57
2022-09-05T06:16:14.573Z,1.50
2022-09-05T06:19:00.767Z,1.50
2022-09-05T06:22:11.281Z,1.40
2022-09-05T06:24:58.701Z,1.20
2022-09-05T06:27:43.859Z,1.48
2022-09-05T06:30:31.018Z,1.50
2022-09-05T06:33:13.194Z,1.42
2022-09-05T06:36:04.335Z,1.40
2022-09-05T06:38:43.232Z,1.40
2022-09-05T06:41:20.670Z,2.10
2022-09-05T06:44:06.309Z,1.50
2022-09-05T06:47:07.718Z,1.60
2022-09-05T06:49:29.697Z,1.70
2022-09-05T06:52:31.539Z,1.40
2022-09-05T06:55:18.453Z,1.25
2022-09-05T06:58:03.430Z,1.63
2022-09-05T07:00:33.655Z,1.33
2022-09-05T07:03:16.836Z,1.40
2022-09-05T07:05:55.708Z,1.23
2022-09-05T07:08:36.285Z,1.10
2022-09-05T07:11:16.338Z,1.23
2022-09-05T07:13:51.600Z,1.20
2022-09-05T07:16:37.209Z,1.30
2022-09-05T07:19:14.486Z,0.95
2022-09-05T07:21:46.616Z,1.40
2022-09-05T07:24:36.204Z,1.48
2022-09-05T07:27:08.969Z,1.08
2022-09-05T07:29:40.226Z,1.30
2022-09-05T07:32:24.425Z,1.20
2022-09-05T07:34:53.579Z,1.40
2022-09-05T07:37:23.763Z,1.42
2022-09-05T07:39:54.202Z,1.23
2022-09-05T07:42:24.723Z,1.35
2022-09-05T07:44:56.554Z,1.45
2022-09-05T07:47:27.191Z,1.25
2022-09-05T07:50:47.251Z,1.42
2022-09-05T07:56:53.851Z,1.30
2022-09-05T07:56:55.974Z,1.20
2022-09-05T07:58:25.004Z,1.27
2022-09-05T08:00:56.460Z,1.40
2022-09-05T08:03:26.463Z,1.30
2022-09-05T08:05:55.799Z,1.20
2022-09-05T08:08:25.819Z,1.33
2022-09-05T08:11:25.254Z,1.00
2022-09-05T08:13:49.736Z,1.10
2022-09-05T08:16:21.558Z,1.35
2022-09-05T08:18:51.888Z,1.08
2022-09-05T08:21:27.268Z,1.20
2022-09-05T08:23:59.297Z,1.08
2022-09-05T08:26:33.235Z,1.05
2022-09-05T08:29:05.151Z,1.30
2022-09-05T08:31:41.686Z,1.23
2022-09-05T08:34:13.511Z,1.35
2022-09-05T08:36:46.253Z,0.98
2022-09-05T08:39:17.976Z,1.20
2022-09-05T08:42:00.904Z,1.20
2022-09-05T08:46:41.382Z,1.30
2022-09-05T08:47:33.020Z,1.13
2022-09-05T08:50:37.863Z,1.10
2022-09-05T08:53:45.405Z,1.25
2022-09-05T08:56:06.485Z,1.10
2022-09-05T08:58:47.951Z,1.10
2022-09-05T09:01:26.186Z,1.10
2022-09-05T09:04:10.738Z,1.10
2022-09-05T09:07:36.763Z,1.08
2022-09-05T09:09:49.886Z,1.40
2022-09-05T09:12:30.299Z,1.20
2022-09-05T09:15:00.117Z,1.10
2022-09-05T09:17:33.736Z,1.05
2022-09-05T09:20:11.743Z,1.20
2022-09-05T09:22:42.679Z,1.25
2022-09-05T09:25:14.905Z,1.20
2022-09-05T09:28:49.986Z,1.15
2022-09-05T09:30:45.336Z,1.20
2022-09-05T09:33:21.159Z,1.42
2022-09-05T09:36:07.754Z,1.15
2022-09-05T09:38:41.770Z,1.08
2022-09-05T09:41:26.832Z,1.23
2022-09-05T09:44:11.095Z,1.08
2022-09-05T09:46:43.407Z,1.45
2022-09-05T09:49:22.689Z,1.20
2022-09-05T09:52:02.747Z,1.50
2022-09-05T09:54:39.768Z,1.20
2022-09-05T09:57:22.936Z,1.15
2022-09-05T10:00:07.022Z,1.20
2022-09-05T10:08:34.591Z,1.25
2022-09-05T10:10:43.935Z,1.30
2022-09-05T10:10:44.033Z,1.02
2022-09-05T10:12:09.561Z,1.05
2022-09-05T10:14:49.428Z,1.20
2022-09-05T10:17:36.190Z,1.23
2022-09-05T10:20:26.083Z,1.40
2022-09-05T10:23:11.117Z,1.10
2022-09-05T10:25:51.370Z,1.40
2022-09-05T10:28:24.751Z,1.20
2022-09-05T10:33:22.654Z,1.10
2022-09-05T10:35:19.948Z,1.00
2022-09-05T10:36:39.196Z,1.00
2022-09-05T10:39:18.017Z,1.20
2022-09-05T10:41:49.948Z,1.20
2022-09-05T10:44:20.212Z,1.23
2022-09-05T10:46:53.301Z,1.17
2022-09-05T10:49:24.482Z,1.20
2022-09-05T10:52:05.432Z,1.10
2022-09-05T10:55:14.893Z,1.30
2022-09-05T10:57:51.449Z,1.30
2022-09-05T11:02:18.800Z,1.23
2022-09-05T11:03:24.916Z,1.25
2022-09-05T11:05:57.603Z,1.38
2022-09-05T11:08:31.548Z,1.35
2022-09-05T11:11:04.065Z,1.35
2022-09-05T11:13:40.199Z,1.30
2022-09-05T11:16:13.690Z,1.30
2022-09-05T11:18:56.320Z,1.35
2022-09-05T11:21:29.228Z,1.30
2022-09-05T11:23:58.345Z,1.23
2022-09-05T11:26:31.467Z,1.30
2022-09-05T11:29:03.409Z,1.45
2022-09-05T11:31:52.465Z,1.33
2022-09-05T11:39:57.201Z,1.08
2022-09-05T11:40:08.920Z,1.50
2022-09-05T11:41:05.334Z,1.65
2022-09-05T11:43:53.080Z,1.40
2022-09-05T11:46:38.842Z,1.40
2022-09-05T11:49:16.465Z,1.30
2022-09-05T11:51:59.009Z,1.10
2022-09-05T11:54:39.071Z,1.40
2022-09-05T11:57:33.725Z,1.40
2022-09-05T12:00:31.666Z,1.60
2022-09-05T12:03:11.645Z,1.40
2022-09-05T12:06:13.579Z,1.23
2022-09-05T12:08:43.504Z,1.60
2022-09-05T12:11:21.453Z,1.27
2022-09-05T12:13:54.099Z,1.50
2022-09-05T12:16:27.826Z,1.57
2022-09-05T12:19:18.997Z,1.40
2022-09-05T12:22:09.153Z,1.40
2022-09-05T12:25:23.593Z,1.33
2022-09-05T12:27:46.428Z,1.30
2022-09-05T12:30:16.297Z,1.67
2022-09-05T12:36:02.539Z,1.30
2022-09-05T12:36:10.332Z,1.50
2022-09-05T12:41:35.205Z,1.50
2022-09-05T12:41:42.467Z,1.50
2022-09-05T12:44:42.142Z,1.45
2022-09-05T12:47:16.785Z,1.15
2022-09-05T12:49:52.437Z,1.38
2022-09-05T12:52:38.411Z,1.40
2022-09-05T12:55:09.273Z,1.60
2022-09-05T13:02:55.731Z,1.30
2022-09-05T13:03:11.873Z,1.20
2022-09-05T13:03:34.465Z,1.45
2022-09-05T13:06:07.664Z,1.95
2022-09-05T13:08:44.183Z,2.00
2022-09-05T13:14:47.860Z,1.40
2022-09-05T13:14:57.928Z,1.40
2022-09-05T13:17:06.257Z,1.57
2022-09-05T13:19:37.488Z,1.57
2022-09-05T13:22:08.531Z,1.60
2022-09-05T13:24:41.405Z,1.40
2022-09-05T13:27:13.678Z,1.50
2022-09-05T13:30:46.924Z,1.33
2022-09-05T13:38:02.351Z,1.37
2022-09-05T13:38:12.830Z,1.60
2022-09-05T13:38:48.346Z,1.60
2022-09-05T13:41:27.038Z,2.10
2022-09-05T13:44:00.489Z,1.30
2022-09-05T13:46:57.451Z,1.58
2022-09-05T13:49:31.191Z,1.50
2022-09-05T13:52:07.105Z,1.80
2022-09-05T13:54:39.982Z,1.40
2022-09-05T13:57:32.420Z,1.67
2022-09-05T14:00:26.986Z,1.30
2022-09-05T14:06:45.030Z,1.42
2022-09-05T14:11:57.467Z,1.80
2022-09-05T14:17:54.170Z,1.20
2022-09-05T14:20:43.322Z,1.55
2022-09-05T14:23:15.231Z,1.40
2022-09-05T14:25:45.248Z,1.45
2022-09-05T14:28:16.397Z,1.67
2022-09-05T14:33:48.834Z,1.37
2022-09-05T14:37:42.764Z,1.48
2022-09-05T14:37:44.167Z,1.65
2022-09-05T14:39:46.271Z,1.60
2022-09-05T14:42:23.917Z,2.23
2022-09-05T14:45:15.872Z,5.03
2022-09-05T14:47:52.731Z,4.43
2022-09-05T14:50:29.277Z,3.20
2022-09-05T14:56:00.071Z,2.23
2022-09-05T15:02:48.692Z,1.73
2022-09-05T15:02:50.545Z,3.37
2022-09-05T15:04:39.772Z,1.33
2022-09-05T15:07:15.904Z,1.53
2022-09-05T15:12:15.943Z,2.00
2022-09-05T15:12:42.486Z,1.67
2022-09-05T15:15:16.054Z,1.70
2022-09-05T15:17:47.563Z,1.60
2022-09-05T15:20:29.767Z,1.70
2022-09-05T15:22:58.305Z,1.73
2022-09-05T15:25:29.411Z,1.40
2022-09-05T15:27:59.096Z,1.40
2022-09-05T15:30:34.787Z,1.57
2022-09-05T15:33:14.425Z,1.60
2022-09-05T15:35:44.869Z,1.50
2022-09-05T15:38:23.490Z,1.53
2022-09-05T15:41:10.291Z,1.60
2022-09-05T15:43:40.079Z,1.50
2022-09-05T15:46:08.680Z,1.50
2022-09-05T15:48:39.835Z,2.00
2022-09-05T15:51:18.041Z,1.40
2022-09-05T15:53:46.272Z,1.60
2022-09-05T15:56:19.441Z,1.93
2022-09-05T15:58:54.215Z,2.00
2022-09-05T16:01:37.124Z,1.40
2022-09-05T16:10:04.134Z,1.70
2022-09-05T16:10:35.227Z,1.53
2022-09-05T16:10:35.757Z,1.80
2022-09-05T16:12:47.088Z,1.53
2022-09-05T16:17:33.703Z,1.73
2022-09-05T16:23:14.350Z,1.30
2022-09-05T16:23:29.339Z,1.20
2022-09-05T16:23:50.245Z,1.50
2022-09-05T16:26:25.654Z,1.50
2022-09-05T16:28:56.913Z,1.50
2022-09-05T16:31:27.892Z,1.50
2022-09-05T16:33:56.357Z,1.90
2022-09-05T16:36:29.326Z,1.70
2022-09-05T16:39:00.097Z,1.67
2022-09-05T16:41:33.560Z,1.60
2022-09-05T16:44:03.972Z,1.50
2022-09-05T16:46:36.314Z,1.40
2022-09-05T16:49:11.835Z,1.60
2022-09-05T16:51:43.362Z,1.50
2022-09-05T16:54:16.084Z,1.87
2022-09-05T16:56:45.455Z,1.40
2022-09-05T16:59:17.465Z,1.67
2022-09-05T17:02:06.753Z,1.30
2022-09-05T17:05:05.102Z,1.60
2022-09-05T17:07:37.527Z,1.30
2022-09-05T17:10:13.166Z,1.30
2022-09-05T17:12:42.276Z,1.40
2022-09-05T17:15:12.305Z,1.80
2022-09-05T17:18:22.542Z,1.60
2022-09-05T17:20:39.965Z,1.40
2022-09-05T17:29:20.234Z,2.10
2022-09-05T17:29:23.730Z,1.80
2022-09-05T17:29:26.429Z,1.50
2022-09-05T17:31:57.591Z,1.70
2022-09-05T17:34:34.589Z,1.40
2022-09-05T17:37:18.203Z,1.70
2022-09-05T17:39:49.997Z,1.60
2022-09-05T17:42:27.630Z,1.70
2022-09-05T17:44:59.850Z,1.90
2022-09-05T17:47:35.617Z,1.90
2022-09-05T17:50:12.772Z,1.80
2022-09-05T17:53:02.758Z,1.63
2022-09-05T17:56:07.988Z,1.60
2022-09-05T17:58:49.030Z,1.97
2022-09-05T18:01:21.226Z,2.00
2022-09-05T18:04:17.298Z,1.80
2022-09-05T18:07:00.725Z,1.90
2022-09-05T18:09:58.886Z,1.50
2022-09-05T18:13:14.143Z,1.87
2022-09-05T18:15:45.330Z,1.87
2022-09-05T18:19:28.555Z,2.10
2022-09-05T18:21:23.026Z,2.30
2022-09-05T18:23:54.405Z,2.40
2022-09-05T18:26:24.956Z,2.67
2022-09-05T18:29:05.955Z,2.73
2022-09-05T18:31:53.283Z,3.37
2022-09-05T18:34:39.752Z,3.57
2022-09-05T18:37:23.234Z,3.53
2022-09-05T18:40:06.243Z,4.20
2022-09-05T18:42:38.038Z,4.07
2022-09-05T18:45:15.434Z,3.93
2022-09-05T18:47:51.054Z,3.57
2022-09-05T18:50:28.426Z,3.67
2022-09-05T18:53:09.327Z,3.63
2022-09-05T18:56:11.665Z,4.10
2022-09-05T18:58:34.509Z,3.80
2022-09-05T19:01:17.110Z,3.93
2022-09-05T19:03:45.915Z,4.07
2022-09-05T19:06:34.952Z,3.77
2022-09-05T19:09:04.954Z,3.70
2022-09-05T19:11:37.480Z,3.43
2022-09-05T19:14:26.085Z,2.63
2022-09-05T19:17:00.013Z,2.47
2022-09-05T19:19:31.317Z,2.73
2022-09-05T19:22:36.074Z,2.30
2022-09-05T19:24:50.396Z,1.97
2022-09-05T19:28:13.945Z,2.00
2022-09-05T19:36:52.606Z,1.80
2022-09-05T19:37:10.870Z,1.77
2022-09-05T19:37:13.587Z,2.10
2022-09-05T19:40:09.822Z,2.13
2022-09-05T19:47:31.322Z,1.80
2022-09-05T19:47:37.379Z,1.77
2022-09-05T19:47:49.188Z,1.90
2022-09-05T19:50:11.083Z,1.80
2022-09-05T19:52:40.166Z,1.80
2022-09-05T19:55:20.354Z,2.00
2022-09-05T19:57:49.649Z,2.10
2022-09-05T20:00:39.945Z,2.30
2022-09-05T20:03:08.263Z,2.03
2022-09-05T20:05:39.973Z,1.87
2022-09-05T20:08:08.747Z,2.10
2022-09-05T20:10:37.361Z,2.10
2022-09-05T20:13:20.703Z,1.93
2022-09-05T20:15:51.360Z,2.20
2022-09-05T20:18:21.164Z,1.90
2022-09-05T20:20:53.533Z,2.27
2022-09-05T20:23:24.081Z,2.20
2022-09-05T20:25:52.704Z,2.20
2022-09-05T20:28:22.527Z,2.30
2022-09-05T20:30:53.949Z,2.53
2022-09-05T20:33:23.774Z,2.57
2022-09-05T20:42:03.751Z,2.10
2022-09-05T20:43:23.243Z,2.07
2022-09-05T20:43:23.647Z,2.30
2022-09-05T20:44:24.997Z,2.33
2022-09-05T20:51:24.951Z,2.17
2022-09-05T20:54:12.676Z,2.10
2022-09-05T20:54:20.538Z,2.10
2022-09-05T20:55:38.921Z,2.10
2022-09-05T20:58:10.223Z,2.20
2022-09-05T21:00:39.384Z,1.80
2022-09-05T21:03:09.358Z,2.20
2022-09-05T21:05:39.694Z,2.80
2022-09-05T21:08:23.176Z,1.73
2022-09-05T21:10:55.590Z,1.90
2022-09-05T21:13:26.087Z,2.10
2022-09-05T21:15:55.407Z,2.03
2022-09-05T21:18:31.382Z,1.90
2022-09-05T21:21:03.276Z,2.00
2022-09-05T21:24:02.274Z,1.97
2022-09-05T21:26:46.821Z,1.50
2022-09-05T21:29:16.439Z,2.20
2022-09-05T21:31:45.626Z,1.73
2022-09-05T21:34:20.281Z,2.17
2022-09-05T21:36:50.532Z,1.90
2022-09-05T21:39:30.251Z,1.80
2022-09-05T21:42:09.151Z,1.63
2022-09-05T21:47:47.461Z,1.87
2022-09-05T21:47:52.050Z,1.77
2022-09-05T21:50:31.172Z,1.40
2022-09-05T21:54:06.521Z,1.80
2022-09-05T21:59:24.361Z,1.87
2022-09-05T21:59:36.942Z,1.63
2022-09-05T22:01:51.815Z,1.80
2022-09-05T22:04:18.918Z,1.80
2022-09-05T22:06:48.956Z,1.77
2022-09-05T22:09:17.515Z,1.53
2022-09-05T22:11:50.088Z,1.67
2022-09-05T22:14:18.874Z,1.70
2022-09-05T22:16:50.140Z,1.60
2022-09-05T22:19:22.568Z,1.83
2022-09-05T22:21:53.445Z,1.90
2022-09-05T22:24:22.704Z,1.60
2022-09-05T22:27:12.251Z,1.50
2022-09-05T22:29:41.426Z,1.60
2022-09-05T22:32:09.846Z,1.50
2022-09-05T22:34:38.081Z,1.70
2022-09-05T22:37:07.710Z,1.80
2022-09-05T22:39:37.124Z,1.47
2022-09-05T22:42:10.769Z,1.60
2022-09-05T22:44:39.848Z,1.77
2022-09-05T22:47:08.517Z,1.60
2022-09-05T22:49:37.056Z,1.37
2022-09-05T22:52:05.927Z,1.60
2022-09-05T22:54:35.559Z,1.60
2022-09-05T22:57:03.985Z,1.67
2022-09-05T22:59:32.371Z,1.60
2022-09-05T23:02:00.646Z,1.47
2022-09-05T23:04:29.149Z,1.30
2022-09-05T23:06:57.496Z,1.90
2022-09-05T23:09:25.725Z,1.60
2022-09-05T23:11:55.277Z,1.53
2022-09-05T23:14:23.458Z,1.70
2022-09-05T23:16:51.759Z,1.67
2022-09-05T23:19:19.954Z,1.80
2022-09-05T23:21:48.136Z,2.30
2022-09-05T23:24:16.366Z,2.03
2022-09-05T23:26:44.531Z,2.07
2022-09-05T23:29:14.093Z,1.87
2022-09-05T23:31:42.267Z,2.30
2022-09-05T23:34:10.454Z,2.43
2022-09-05T23:36:38.648Z,2.70
2022-09-05T23:39:06.807Z,2.63
2022-09-05T23:41:34.988Z,2.43
2022-09-05T23:44:03.372Z,2.97
2022-09-05T23:46:33.163Z,2.80
2022-09-05T23:49:01.346Z,3.10
2022-09-05T23:51:29.523Z,3.43
2022-09-05T23:53:57.848Z,3.33
2022-09-05T23:56:26.036Z,3.23
2022-09-05T23:58:54.252Z,3.33
